(°C)
27°
28°
29°
29°
29°
28°
27°
(°C)
27°
28°
29°
28°
27°
27°
26°
VSV
VSV
VSV
VSV
VSV
VSV
V
(km/h)
8-14
8-13
8-13
8-12
8-13
8-13
8-12
(mm)
0
0
0
0
0
0
0
(%)
0
0
0
0
0
0
0

Výška Slnka nad obzorom

/ 64.8°
sun-icon
UV 7
04:47
20:55
Ubúdajúci mesiac (70°)
10:28
00:40

Správy METAR pre lokalitu Ivanka pri Dunaji (LZIB)

Čas Podmienky Teplota/
Rosný bod
Vietor Viditeľnosť Počasie Oblaky Tlak Zmeniť Nespracované
VFR 27°C / 11°C variable 3kt >10km - Clouds and Visibility OK 1018 No Significant change LZIB 161100Z VRB03KT CAVOK 27/11 Q1018 NOSIG
VFR 26°C / 11°C variable 3kt >10km - Clouds and Visibility OK 1018 No Significant change LZIB 161030Z VRB03KT CAVOK 26/11 Q1018 NOSIG
VFR 26°C / 11°C 140º variable 070º to 210º 4kt >10km - Clouds and Visibility OK 1018 No Significant change LZIB 161000Z 14004KT 070V210 CAVOK 26/11 Q1018 NOSIG
VFR 25°C / 11°C 130º variable 070º to 170º 6kt >10km - Clouds and Visibility OK 1018 No Significant change LZIB 160930Z 13006KT 070V170 CAVOK 25/11 Q1018 NOSIG
VFR 25°C / 12°C 130º variable 070º to 160º 7kt >10km - Clouds and Visibility OK 1018 No Significant change LZIB 160900Z 13007KT 070V160 CAVOK 25/12 Q1018 NOSIG
VFR 24°C / 12°C 90º variable 060º to 130º 5kt >10km - Clouds and Visibility OK 1018 No Significant change LZIB 160830Z 09005KT 060V130 CAVOK 24/12 Q1018 NOSIG
VFR 23°C / 12°C 70º variable 040º to 120º 6kt >10km - Clouds and Visibility OK 1018 No Significant change LZIB 160800Z 07006KT 040V120 CAVOK 23/12 Q1018 NOSIG
VFR 23°C / 12°C 80º variable 040º to 130º 6kt >10km - Clouds and Visibility OK 1018 No Significant change LZIB 160730Z 08006KT 040V130 CAVOK 23/12 Q1018 NOSIG
VFR 23°C / 10°C 70º variable 030º to 100º 7kt >10km - Clouds and Visibility OK 1018 No Significant change LZIB 160700Z 07007KT 030V100 CAVOK 23/10 Q1018 NOSIG
VFR 22°C / 10°C 50º 7kt >10km - Clouds and Visibility OK 1018 No Significant change LZIB 160630Z 05007KT CAVOK 22/10 Q1018 NOSIG
VFR 20°C / 10°C 50º 4kt >10km - Clouds and Visibility OK 1018 No Significant change LZIB 160600Z 05004KT CAVOK 20/10 Q1018 NOSIG
VFR 19°C / 11°C 50º 4kt >10km - Clouds and Visibility OK 1018 No Significant change LZIB 160530Z 05004KT CAVOK 19/11 Q1018 NOSIG
VFR 18°C / 11°C variable 2kt >10km - Clouds and Visibility OK 1017 No Significant change LZIB 160500Z VRB02KT CAVOK 18/11 Q1017 NOSIG
VFR 16°C / 10°C 30º 4kt >10km - Clouds and Visibility OK 1017 No Significant change LZIB 160430Z 03004KT CAVOK 16/10 Q1017 NOSIG
VFR 15°C / 12°C 30º 4kt >10km - Clouds and Visibility OK 1017 No Significant change LZIB 160400Z 03004KT CAVOK 15/12 Q1017 NOSIG
VFR 16°C / 10°C variable 1kt >10km - Clouds and Visibility OK 1017 - LZIB 160330Z VRB01KT CAVOK 16/10 Q1017
VFR 15°C / 11°C variable 1kt >10km - Clouds and Visibility OK 1017 - LZIB 160300Z VRB01KT CAVOK 15/11 Q1017
VFR 15°C / 11°C variable 1kt >10km - Clouds and Visibility OK 1016 - LZIB 160230Z VRB01KT CAVOK 15/11 Q1016
VFR 15°C / 11°C variable 2kt >10km - Clouds and Visibility OK 1017 - LZIB 160200Z VRB02KT CAVOK 15/11 Q1017
VFR 16°C / 11°C 20º 3kt >10km - Clouds and Visibility OK 1017 - LZIB 160130Z 02003KT CAVOK 16/11 Q1017
VFR 16°C / 12°C variable 2kt >10km - Clouds and Visibility OK 1017 - LZIB 160100Z VRB02KT CAVOK 16/12 Q1017
VFR 18°C / 12°C 320º 4kt >10km - Clouds and Visibility OK 1017 - LZIB 160030Z 32004KT CAVOK 18/12 Q1017
VFR 18°C / 12°C 350º 3kt >10km - Clouds and Visibility OK 1017 - LZIB 160000Z 35003KT CAVOK 18/12 Q1017
VFR 19°C / 12°C variable 2kt >10km - Clouds and Visibility OK 1017 - LZIB 152330Z VRB02KT CAVOK 19/12 Q1017

VFR

27°C / 11°C

[Viac]
Vietor variable 3kt
Viditeľnosť >10km
Počasie -
Oblaky Clouds and Visibility OK
Tlak 1018
Zmeniť No Significant change
Nespracované LZIB 161100Z VRB03KT CAVOK 27/11 Q1018 NOSIG

VFR

26°C / 11°C

[Viac]
Vietor variable 3kt
Viditeľnosť >10km
Počasie -
Oblaky Clouds and Visibility OK
Tlak 1018
Zmeniť No Significant change
Nespracované LZIB 161030Z VRB03KT CAVOK 26/11 Q1018 NOSIG

VFR

26°C / 11°C

[Viac]
Vietor 140º variable 070º to 210º 4kt
Viditeľnosť >10km
Počasie -
Oblaky Clouds and Visibility OK
Tlak 1018
Zmeniť No Significant change
Nespracované LZIB 161000Z 14004KT 070V210 CAVOK 26/11 Q1018 NOSIG

VFR

25°C / 11°C

[Viac]
Vietor 130º variable 070º to 170º 6kt
Viditeľnosť >10km
Počasie -
Oblaky Clouds and Visibility OK
Tlak 1018
Zmeniť No Significant change
Nespracované LZIB 160930Z 13006KT 070V170 CAVOK 25/11 Q1018 NOSIG

VFR

25°C / 12°C

[Viac]
Vietor 130º variable 070º to 160º 7kt
Viditeľnosť >10km
Počasie -
Oblaky Clouds and Visibility OK
Tlak 1018
Zmeniť No Significant change
Nespracované LZIB 160900Z 13007KT 070V160 CAVOK 25/12 Q1018 NOSIG

VFR

24°C / 12°C

[Viac]
Vietor 90º variable 060º to 130º 5kt
Viditeľnosť >10km
Počasie -
Oblaky Clouds and Visibility OK
Tlak 1018
Zmeniť No Significant change
Nespracované LZIB 160830Z 09005KT 060V130 CAVOK 24/12 Q1018 NOSIG

VFR

23°C / 12°C

[Viac]
Vietor 70º variable 040º to 120º 6kt
Viditeľnosť >10km
Počasie -
Oblaky Clouds and Visibility OK
Tlak 1018
Zmeniť No Significant change
Nespracované LZIB 160800Z 07006KT 040V120 CAVOK 23/12 Q1018 NOSIG

VFR

23°C / 12°C

[Viac]
Vietor 80º variable 040º to 130º 6kt
Viditeľnosť >10km
Počasie -
Oblaky Clouds and Visibility OK
Tlak 1018
Zmeniť No Significant change
Nespracované LZIB 160730Z 08006KT 040V130 CAVOK 23/12 Q1018 NOSIG

VFR

23°C / 10°C

[Viac]
Vietor 70º variable 030º to 100º 7kt
Viditeľnosť >10km
Počasie -
Oblaky Clouds and Visibility OK
Tlak 1018
Zmeniť No Significant change
Nespracované LZIB 160700Z 07007KT 030V100 CAVOK 23/10 Q1018 NOSIG

VFR

22°C / 10°C

[Viac]
Vietor 50º 7kt
Viditeľnosť >10km
Počasie -
Oblaky Clouds and Visibility OK
Tlak 1018
Zmeniť No Significant change
Nespracované LZIB 160630Z 05007KT CAVOK 22/10 Q1018 NOSIG

VFR

20°C / 10°C

[Viac]
Vietor 50º 4kt
Viditeľnosť >10km
Počasie -
Oblaky Clouds and Visibility OK
Tlak 1018
Zmeniť No Significant change
Nespracované LZIB 160600Z 05004KT CAVOK 20/10 Q1018 NOSIG

VFR

19°C / 11°C

[Viac]
Vietor 50º 4kt
Viditeľnosť >10km
Počasie -
Oblaky Clouds and Visibility OK
Tlak 1018
Zmeniť No Significant change
Nespracované LZIB 160530Z 05004KT CAVOK 19/11 Q1018 NOSIG

VFR

18°C / 11°C

[Viac]
Vietor variable 2kt
Viditeľnosť >10km
Počasie -
Oblaky Clouds and Visibility OK
Tlak 1017
Zmeniť No Significant change
Nespracované LZIB 160500Z VRB02KT CAVOK 18/11 Q1017 NOSIG

VFR

16°C / 10°C

[Viac]
Vietor 30º 4kt
Viditeľnosť >10km
Počasie -
Oblaky Clouds and Visibility OK
Tlak 1017
Zmeniť No Significant change
Nespracované LZIB 160430Z 03004KT CAVOK 16/10 Q1017 NOSIG

VFR

15°C / 12°C

[Viac]
Vietor 30º 4kt
Viditeľnosť >10km
Počasie -
Oblaky Clouds and Visibility OK
Tlak 1017
Zmeniť No Significant change
Nespracované LZIB 160400Z 03004KT CAVOK 15/12 Q1017 NOSIG

VFR

16°C / 10°C

[Viac]
Vietor variable 1kt
Viditeľnosť >10km
Počasie -
Oblaky Clouds and Visibility OK
Tlak 1017
Zmeniť -
Nespracované LZIB 160330Z VRB01KT CAVOK 16/10 Q1017

VFR

15°C / 11°C

[Viac]
Vietor variable 1kt
Viditeľnosť >10km
Počasie -
Oblaky Clouds and Visibility OK
Tlak 1017
Zmeniť -
Nespracované LZIB 160300Z VRB01KT CAVOK 15/11 Q1017

VFR

15°C / 11°C

[Viac]
Vietor variable 1kt
Viditeľnosť >10km
Počasie -
Oblaky Clouds and Visibility OK
Tlak 1016
Zmeniť -
Nespracované LZIB 160230Z VRB01KT CAVOK 15/11 Q1016

VFR

15°C / 11°C

[Viac]
Vietor variable 2kt
Viditeľnosť >10km
Počasie -
Oblaky Clouds and Visibility OK
Tlak 1017
Zmeniť -
Nespracované LZIB 160200Z VRB02KT CAVOK 15/11 Q1017

VFR

16°C / 11°C

[Viac]
Vietor 20º 3kt
Viditeľnosť >10km
Počasie -
Oblaky Clouds and Visibility OK
Tlak 1017
Zmeniť -
Nespracované LZIB 160130Z 02003KT CAVOK 16/11 Q1017

VFR

16°C / 12°C

[Viac]
Vietor variable 2kt
Viditeľnosť >10km
Počasie -
Oblaky Clouds and Visibility OK
Tlak 1017
Zmeniť -
Nespracované LZIB 160100Z VRB02KT CAVOK 16/12 Q1017

VFR

18°C / 12°C

[Viac]
Vietor 320º 4kt
Viditeľnosť >10km
Počasie -
Oblaky Clouds and Visibility OK
Tlak 1017
Zmeniť -
Nespracované LZIB 160030Z 32004KT CAVOK 18/12 Q1017

VFR

18°C / 12°C

[Viac]
Vietor 350º 3kt
Viditeľnosť >10km
Počasie -
Oblaky Clouds and Visibility OK
Tlak 1017
Zmeniť -
Nespracované LZIB 160000Z 35003KT CAVOK 18/12 Q1017

VFR

19°C / 12°C

[Viac]
Vietor variable 2kt
Viditeľnosť >10km
Počasie -
Oblaky Clouds and Visibility OK
Tlak 1017
Zmeniť -
Nespracované LZIB 152330Z VRB02KT CAVOK 19/12 Q1017

Správy TAF pre lokalitu Ivanka pri Dunaji (LZIB)

From till


From till Wind 80º 5kt. Visibility 10km or more. Nil Significant Cloud.
Becoming from till Wind variable 2kt. Visibility 10km or more. Nil Significant Cloud.
Becoming from till Wind 120º 10kt. Visibility 10km or more. Nil Significant Cloud.

Nespracované: TAF LZIB 161100Z 1612/1712 08005KT CAVOK BECMG 1619/1621 VRB02KT BECMG 1706/1708 12010KT

rainNOW

0.0 mm
0.0 mm
0.0 mm
0.0 mm
0.0 mm
0.0 mm
0.0 mm
0.0 mm
0.0 mm
0.0 mm
0.0 mm
0.0 mm

Aktuálne satelitné snímky a snímky zrážok pre lokalitu Ivanka pri Dunaji, Slovensko

Značka polohy je umiestnená naIvanka pri Dunaji. [Viac]

Satelitné snímky zhotovované v reálnom čase využívajú viditeľné svetlo počas dňa a infračervené žiarenie počas noci. Vzhľadom na to, že infračervené žiarenie zisťuje teplotné rozdiely, snímka v noci nie je tmavá. Nízke oblaky a hmlu je, žiaľ, ťažké odlíšiť od prízemných teplôt, preto môžu byť počas noci takmer neviditeľné. Meteosat satelitné snímky pre Európu sú aktualizované v reálnom čase každých 5 minút. Snímky z GOES-16/GOES-17 (Severná a Južná Amerika) a Himawari (Ázia) sú aktualizované každých 10 minút.

Zrážky sú odhadované na základe radara a satelitov. V noci sú odhady zrážok zo satelitov menej presné než počas dňa. Oranžové krížiky označujú miesta, kde bol zaznamenaný blesk (za Európa).

Copyright 2021 EUMETSAT / meteoblue. Údaje o bleskoch poskytuje nowcast.

Radar a krátkodobá predpoveď zrážok pre Ivanka pri Dunaji

Značka polohy je umiestnená na Ivanka pri Dunaji. Táto animácia ukazuje zrážky pozorované radarom za poslednú hodinu a tiež 1h predpoveď. Mrholenie alebo slabé sneženie môžu byť pre radar neviditeľné. Intenzita zrážok je určená farebným kódom od svetlomodrej po tmavofialovú.

Aktuálny stav počasia a výstrahy

EUMETNET – MeteoAlarm

pictomap

Zdroj: SHMU

Časové oneskorenie medzi touto webovou stránkou a stránkou www.meteoalarm.eu je možné, pre najaktuálnejšie informácie o stupňoch výstrahy tak, ako sú zverejnené zúčastnenými národnými meteorologickými agentúrami, použite, prosím, www.meteoalarm.eu.